sensor_id;sensor_type;location;lat;lon;timestamp;P1;durP1;ratioP1;P2;durP2;ratioP2
6737;SDS011;3406;49.902;8.596;2023-08-30T00:02:26;0.20;;;0.20;;
6737;SDS011;3406;49.902;8.596;2023-08-30T00:04:57;0.10;;;0.10;;
6737;SDS011;3406;49.902;8.596;2023-08-30T00:07:24;0.20;;;0.20;;
6737;SDS011;3406;49.902;8.596;2023-08-30T00:09:52;0.10;;;0.10;;
6737;SDS011;3406;49.902;8.596;2023-08-30T00:12:18;0.10;;;0.10;;
6737;SDS011;3406;49.902;8.596;2023-08-30T00:14:46;0.20;;;0.20;;
6737;SDS011;3406;49.902;8.596;2023-08-30T00:17:13;0.20;;;0.20;;
6737;SDS011;3406;49.902;8.596;2023-08-30T00:19:40;0.27;;;0.27;;
6737;SDS011;3406;49.902;8.596;2023-08-30T00:22:06;0.10;;;0.10;;
6737;SDS011;3406;49.902;8.596;2023-08-30T00:24:33;0.20;;;0.20;;
6737;SDS011;3406;49.902;8.596;2023-08-30T00:27:00;0.30;;;0.30;;
6737;SDS011;3406;49.902;8.596;2023-08-30T00:29:26;0.20;;;0.20;;
6737;SDS011;3406;49.902;8.596;2023-08-30T00:31:54;0.30;;;0.30;;
6737;SDS011;3406;49.902;8.596;2023-08-30T00:34:21;0.60;;;0.60;;
6737;SDS011;3406;49.902;8.596;2023-08-30T00:36:48;0.10;;;0.10;;
6737;SDS011;3406;49.902;8.596;2023-08-30T00:39:15;0.20;;;0.20;;
6737;SDS011;3406;49.902;8.596;2023-08-30T00:41:42;0.20;;;0.20;;
6737;SDS011;3406;49.902;8.596;2023-08-30T00:44:08;0.20;;;0.20;;
6737;SDS011;3406;49.902;8.596;2023-08-30T00:46:35;0.20;;;0.20;;
6737;SDS011;3406;49.902;8.596;2023-08-30T00:49:04;0.13;;;0.13;;
6737;SDS011;3406;49.902;8.596;2023-08-30T00:51:31;0.20;;;0.20;;
6737;SDS011;3406;49.902;8.596;2023-08-30T00:53:59;0.10;;;0.10;;
6737;SDS011;3406;49.902;8.596;2023-08-30T00:56:26;0.20;;;0.20;;
6737;SDS011;3406;49.902;8.596;2023-08-30T00:58:54;0.10;;;0.10;;
6737;SDS011;3406;49.902;8.596;2023-08-30T01:01:21;0.20;;;0.20;;
6737;SDS011;3406;49.902;8.596;2023-08-30T01:03:48;0.10;;;0.10;;
6737;SDS011;3406;49.902;8.596;2023-08-30T01:06:16;0.10;;;0.10;;
6737;SDS011;3406;49.902;8.596;2023-08-30T01:08:43;0.30;;;0.30;;
6737;SDS011;3406;49.902;8.596;2023-08-30T01:11:11;0.20;;;0.20;;
6737;SDS011;3406;49.902;8.596;2023-08-30T01:13:46;0.20;;;0.20;;
6737;SDS011;3406;49.902;8.596;2023-08-30T01:16:16;0.20;;;0.20;;
6737;SDS011;3406;49.902;8.596;2023-08-30T01:18:45;0.23;;;0.20;;
6737;SDS011;3406;49.902;8.596;2023-08-30T01:21:14;0.20;;;0.20;;
6737;SDS011;3406;49.902;8.596;2023-08-30T01:23:54;0.10;;;0.10;;
6737;SDS011;3406;49.902;8.596;2023-08-30T01:26:24;0.10;;;0.10;;
6737;SDS011;3406;49.902;8.596;2023-08-30T01:29:10;0.30;;;0.30;;
6737;SDS011;3406;49.902;8.596;2023-08-30T01:31:37;0.23;;;0.23;;
6737;SDS011;3406;49.902;8.596;2023-08-30T01:34:06;0.10;;;0.10;;
6737;SDS011;3406;49.902;8.596;2023-08-30T01:36:32;0.10;;;0.10;;
6737;SDS011;3406;49.902;8.596;2023-08-30T01:39:00;0.10;;;0.10;;
6737;SDS011;3406;49.902;8.596;2023-08-30T01:41:28;0.10;;;0.10;;
6737;SDS011;3406;49.902;8.596;2023-08-30T01:43:56;0.27;;;0.13;;
6737;SDS011;3406;49.902;8.596;2023-08-30T01:46:25;0.13;;;0.13;;
6737;SDS011;3406;49.902;8.596;2023-08-30T01:48:53;0.10;;;0.10;;
6737;SDS011;3406;49.902;8.596;2023-08-30T01:51:21;0.10;;;0.10;;
6737;SDS011;3406;49.902;8.596;2023-08-30T01:53:48;0.20;;;0.20;;
6737;SDS011;3406;49.902;8.596;2023-08-30T01:56:18;0.37;;;0.30;;
6737;SDS011;3406;49.902;8.596;2023-08-30T01:58:44;0.20;;;0.20;;
6737;SDS011;3406;49.902;8.596;2023-08-30T02:01:11;0.27;;;0.27;;
6737;SDS011;3406;49.902;8.596;2023-08-30T02:03:40;0.10;;;0.10;;
6737;SDS011;3406;49.902;8.596;2023-08-30T02:06:11;0.20;;;0.20;;
6737;SDS011;3406;49.902;8.596;2023-08-30T02:08:45;0.20;;;0.20;;
6737;SDS011;3406;49.902;8.596;2023-08-30T02:11:19;0.20;;;0.20;;
6737;SDS011;3406;49.902;8.596;2023-08-30T02:13:52;0.10;;;0.10;;
6737;SDS011;3406;49.902;8.596;2023-08-30T02:16:20;0.20;;;0.20;;
6737;SDS011;3406;49.902;8.596;2023-08-30T02:18:49;0.20;;;0.20;;
6737;SDS011;3406;49.902;8.596;2023-08-30T02:21:16;0.30;;;0.30;;
6737;SDS011;3406;49.902;8.596;2023-08-30T02:23:44;0.10;;;0.10;;
6737;SDS011;3406;49.902;8.596;2023-08-30T02:26:15;0.20;;;0.20;;
6737;SDS011;3406;49.902;8.596;2023-08-30T02:28:43;0.10;;;0.10;;
6737;SDS011;3406;49.902;8.596;2023-08-30T02:31:10;0.20;;;0.20;;
6737;SDS011;3406;49.902;8.596;2023-08-30T02:33:37;0.30;;;0.30;;
6737;SDS011;3406;49.902;8.596;2023-08-30T02:36:05;0.20;;;0.20;;
6737;SDS011;3406;49.902;8.596;2023-08-30T02:38:33;0.20;;;0.20;;
6737;SDS011;3406;49.902;8.596;2023-08-30T02:40:59;0.10;;;0.10;;
6737;SDS011;3406;49.902;8.596;2023-08-30T02:43:26;0.50;;;0.50;;
6737;SDS011;3406;49.902;8.596;2023-08-30T02:45:52;0.20;;;0.20;;
6737;SDS011;3406;49.902;8.596;2023-08-30T02:48:19;0.30;;;0.30;;
6737;SDS011;3406;49.902;8.596;2023-08-30T02:50:46;1.03;;;0.50;;
6737;SDS011;3406;49.902;8.596;2023-08-30T02:53:14;0.30;;;0.30;;
6737;SDS011;3406;49.902;8.596;2023-08-30T02:55:41;0.20;;;0.20;;
6737;SDS011;3406;49.902;8.596;2023-08-30T02:58:07;0.27;;;0.27;;
6737;SDS011;3406;49.902;8.596;2023-08-30T03:00:34;0.20;;;0.20;;
6737;SDS011;3406;49.902;8.596;2023-08-30T03:03:01;0.30;;;0.30;;
6737;SDS011;3406;49.902;8.596;2023-08-30T03:05:27;0.37;;;0.37;;
6737;SDS011;3406;49.902;8.596;2023-08-30T03:07:54;0.20;;;0.20;;
6737;SDS011;3406;49.902;8.596;2023-08-30T03:10:22;7.20;;;0.30;;
6737;SDS011;3406;49.902;8.596;2023-08-30T03:12:49;0.30;;;0.30;;
6737;SDS011;3406;49.902;8.596;2023-08-30T03:15:16;0.30;;;0.30;;
6737;SDS011;3406;49.902;8.596;2023-08-30T03:17:42;0.23;;;0.23;;
6737;SDS011;3406;49.902;8.596;2023-08-30T03:20:09;0.47;;;0.47;;
6737;SDS011;3406;49.902;8.596;2023-08-30T03:22:36;0.30;;;0.30;;
6737;SDS011;3406;49.902;8.596;2023-08-30T03:25:03;0.43;;;0.43;;
6737;SDS011;3406;49.902;8.596;2023-08-30T03:27:33;0.37;;;0.37;;
6737;SDS011;3406;49.902;8.596;2023-08-30T03:30:00;0.30;;;0.30;;
6737;SDS011;3406;49.902;8.596;2023-08-30T03:32:26;0.53;;;0.53;;
6737;SDS011;3406;49.902;8.596;2023-08-30T03:34:53;0.10;;;0.10;;
6737;SDS011;3406;49.902;8.596;2023-08-30T03:37:20;0.20;;;0.20;;
6737;SDS011;3406;49.902;8.596;2023-08-30T03:39:46;0.27;;;0.27;;
6737;SDS011;3406;49.902;8.596;2023-08-30T03:42:13;0.30;;;0.30;;
6737;SDS011;3406;49.902;8.596;2023-08-30T03:44:41;0.47;;;0.47;;
6737;SDS011;3406;49.902;8.596;2023-08-30T03:47:07;0.20;;;0.20;;
6737;SDS011;3406;49.902;8.596;2023-08-30T03:49:34;0.20;;;0.20;;
6737;SDS011;3406;49.902;8.596;2023-08-30T03:52:01;0.30;;;0.30;;
6737;SDS011;3406;49.902;8.596;2023-08-30T03:54:28;0.67;;;0.67;;
6737;SDS011;3406;49.902;8.596;2023-08-30T03:56:54;0.40;;;0.40;;
6737;SDS011;3406;49.902;8.596;2023-08-30T03:59:21;0.20;;;0.20;;
6737;SDS011;3406;49.902;8.596;2023-08-30T04:01:51;0.40;;;0.40;;
6737;SDS011;3406;49.902;8.596;2023-08-30T04:04:18;0.33;;;0.33;;
6737;SDS011;3406;49.902;8.596;2023-08-30T04:06:45;0.13;;;0.13;;
6737;SDS011;3406;49.902;8.596;2023-08-30T04:09:11;0.13;;;0.13;;
6737;SDS011;3406;49.902;8.596;2023-08-30T04:11:38;0.20;;;0.20;;
6737;SDS011;3406;49.902;8.596;2023-08-30T04:14:05;0.37;;;0.30;;
6737;SDS011;3406;49.902;8.596;2023-08-30T04:16:31;0.20;;;0.20;;
6737;SDS011;3406;49.902;8.596;2023-08-30T04:18:59;0.33;;;0.33;;
6737;SDS011;3406;49.902;8.596;2023-08-30T04:21:26;0.33;;;0.33;;
6737;SDS011;3406;49.902;8.596;2023-08-30T04:23:52;0.27;;;0.27;;
6737;SDS011;3406;49.902;8.596;2023-08-30T04:26:19;2.93;;;0.23;;
6737;SDS011;3406;49.902;8.596;2023-08-30T04:28:46;0.27;;;0.27;;
6737;SDS011;3406;49.902;8.596;2023-08-30T04:31:12;0.30;;;0.30;;
6737;SDS011;3406;49.902;8.596;2023-08-30T04:33:39;0.30;;;0.30;;
6737;SDS011;3406;49.902;8.596;2023-08-30T04:36:07;0.50;;;0.50;;
6737;SDS011;3406;49.902;8.596;2023-08-30T04:38:34;0.40;;;0.40;;
6737;SDS011;3406;49.902;8.596;2023-08-30T04:41:00;0.50;;;0.50;;
6737;SDS011;3406;49.902;8.596;2023-08-30T04:43:27;0.30;;;0.30;;
6737;SDS011;3406;49.902;8.596;2023-08-30T04:45:54;0.33;;;0.33;;
6737;SDS011;3406;49.902;8.596;2023-08-30T04:48:21;0.40;;;0.40;;
6737;SDS011;3406;49.902;8.596;2023-08-30T04:50:49;0.37;;;0.37;;
6737;SDS011;3406;49.902;8.596;2023-08-30T04:53:24;0.20;;;0.20;;
6737;SDS011;3406;49.902;8.596;2023-08-30T04:55:51;0.40;;;0.40;;
6737;SDS011;3406;49.902;8.596;2023-08-30T04:58:18;0.40;;;0.40;;
6737;SDS011;3406;49.902;8.596;2023-08-30T05:00:44;0.47;;;0.47;;
6737;SDS011;3406;49.902;8.596;2023-08-30T05:03:11;0.63;;;0.63;;
6737;SDS011;3406;49.902;8.596;2023-08-30T05:05:38;0.33;;;0.33;;
6737;SDS011;3406;49.902;8.596;2023-08-30T05:08:04;0.93;;;0.93;;
6737;SDS011;3406;49.902;8.596;2023-08-30T05:10:33;0.43;;;0.43;;
6737;SDS011;3406;49.902;8.596;2023-08-30T05:13:00;0.47;;;0.47;;
6737;SDS011;3406;49.902;8.596;2023-08-30T05:15:26;0.20;;;0.20;;
6737;SDS011;3406;49.902;8.596;2023-08-30T05:17:53;0.53;;;0.53;;
6737;SDS011;3406;49.902;8.596;2023-08-30T05:20:19;0.70;;;0.70;;
6737;SDS011;3406;49.902;8.596;2023-08-30T05:22:46;0.33;;;0.33;;
6737;SDS011;3406;49.902;8.596;2023-08-30T05:25:13;0.47;;;0.47;;
6737;SDS011;3406;49.902;8.596;2023-08-30T05:27:41;0.67;;;0.67;;
6737;SDS011;3406;49.902;8.596;2023-08-30T05:30:08;0.67;;;0.40;;
6737;SDS011;3406;49.902;8.596;2023-08-30T05:32:36;0.60;;;0.60;;
6737;SDS011;3406;49.902;8.596;2023-08-30T05:35:03;0.50;;;0.50;;
6737;SDS011;3406;49.902;8.596;2023-08-30T05:37:30;0.33;;;0.33;;
6737;SDS011;3406;49.902;8.596;2023-08-30T05:39:57;0.20;;;0.20;;
6737;SDS011;3406;49.902;8.596;2023-08-30T05:42:23;0.30;;;0.30;;
6737;SDS011;3406;49.902;8.596;2023-08-30T05:44:52;0.33;;;0.33;;
6737;SDS011;3406;49.902;8.596;2023-08-30T05:47:20;0.30;;;0.30;;
6737;SDS011;3406;49.902;8.596;2023-08-30T05:49:47;0.40;;;0.40;;
6737;SDS011;3406;49.902;8.596;2023-08-30T05:52:14;0.30;;;0.30;;
6737;SDS011;3406;49.902;8.596;2023-08-30T05:54:43;0.30;;;0.30;;
6737;SDS011;3406;49.902;8.596;2023-08-30T05:57:10;0.30;;;0.30;;
6737;SDS011;3406;49.902;8.596;2023-08-30T05:59:36;0.40;;;0.40;;
6737;SDS011;3406;49.902;8.596;2023-08-30T06:02:05;0.77;;;0.77;;
6737;SDS011;3406;49.902;8.596;2023-08-30T06:04:32;0.50;;;0.50;;
6737;SDS011;3406;49.902;8.596;2023-08-30T06:06:58;1.27;;;0.33;;
6737;SDS011;3406;49.902;8.596;2023-08-30T06:09:25;0.30;;;0.30;;
6737;SDS011;3406;49.902;8.596;2023-08-30T06:11:52;0.40;;;0.40;;
6737;SDS011;3406;49.902;8.596;2023-08-30T06:14:18;0.50;;;0.50;;
6737;SDS011;3406;49.902;8.596;2023-08-30T06:16:45;0.70;;;0.70;;
6737;SDS011;3406;49.902;8.596;2023-08-30T06:19:13;0.97;;;0.77;;
6737;SDS011;3406;49.902;8.596;2023-08-30T06:21:40;0.50;;;0.50;;
6737;SDS011;3406;49.902;8.596;2023-08-30T06:24:07;0.43;;;0.43;;
6737;SDS011;3406;49.902;8.596;2023-08-30T06:26:33;0.30;;;0.30;;
6737;SDS011;3406;49.902;8.596;2023-08-30T06:29:00;0.60;;;0.60;;
6737;SDS011;3406;49.902;8.596;2023-08-30T06:31:27;1.10;;;1.10;;
6737;SDS011;3406;49.902;8.596;2023-08-30T06:33:54;0.77;;;0.77;;
6737;SDS011;3406;49.902;8.596;2023-08-30T06:36:22;0.30;;;0.30;;
6737;SDS011;3406;49.902;8.596;2023-08-30T06:38:48;0.50;;;0.50;;
6737;SDS011;3406;49.902;8.596;2023-08-30T06:41:15;2.00;;;0.80;;
6737;SDS011;3406;49.902;8.596;2023-08-30T06:43:42;0.70;;;0.70;;
6737;SDS011;3406;49.902;8.596;2023-08-30T06:46:08;0.50;;;0.50;;
6737;SDS011;3406;49.902;8.596;2023-08-30T06:48:35;0.50;;;0.50;;
6737;SDS011;3406;49.902;8.596;2023-08-30T06:51:02;0.73;;;0.73;;
6737;SDS011;3406;49.902;8.596;2023-08-30T06:53:30;1.17;;;0.37;;
6737;SDS011;3406;49.902;8.596;2023-08-30T06:55:57;0.57;;;0.57;;
6737;SDS011;3406;49.902;8.596;2023-08-30T06:58:24;0.53;;;0.53;;
6737;SDS011;3406;49.902;8.596;2023-08-30T07:00:51;1.10;;;1.10;;
6737;SDS011;3406;49.902;8.596;2023-08-30T07:03:17;1.10;;;1.10;;
6737;SDS011;3406;49.902;8.596;2023-08-30T07:05:44;0.37;;;0.37;;
6737;SDS011;3406;49.902;8.596;2023-08-30T07:08:12;0.30;;;0.30;;
6737;SDS011;3406;49.902;8.596;2023-08-30T07:10:40;0.63;;;0.63;;
6737;SDS011;3406;49.902;8.596;2023-08-30T07:13:07;0.83;;;0.83;;
6737;SDS011;3406;49.902;8.596;2023-08-30T07:15:35;0.97;;;0.97;;
6737;SDS011;3406;49.902;8.596;2023-08-30T07:18:02;0.70;;;0.70;;
6737;SDS011;3406;49.902;8.596;2023-08-30T07:20:29;0.60;;;0.60;;
6737;SDS011;3406;49.902;8.596;2023-08-30T07:22:56;0.73;;;0.73;;
6737;SDS011;3406;49.902;8.596;2023-08-30T07:25:23;0.60;;;0.60;;
6737;SDS011;3406;49.902;8.596;2023-08-30T07:27:51;0.87;;;0.87;;
6737;SDS011;3406;49.902;8.596;2023-08-30T07:30:18;1.27;;;1.27;;
6737;SDS011;3406;49.902;8.596;2023-08-30T07:32:44;1.70;;;0.97;;
6737;SDS011;3406;49.902;8.596;2023-08-30T07:35:12;4.60;;;0.50;;
6737;SDS011;3406;49.902;8.596;2023-08-30T07:37:39;0.77;;;0.77;;
6737;SDS011;3406;49.902;8.596;2023-08-30T07:40:06;0.70;;;0.70;;
6737;SDS011;3406;49.902;8.596;2023-08-30T07:42:34;1.10;;;1.10;;
6737;SDS011;3406;49.902;8.596;2023-08-30T07:45:02;0.90;;;0.90;;
6737;SDS011;3406;49.902;8.596;2023-08-30T07:47:30;0.70;;;0.63;;
6737;SDS011;3406;49.902;8.596;2023-08-30T07:49:56;0.80;;;0.80;;
6737;SDS011;3406;49.902;8.596;2023-08-30T07:52:23;0.33;;;0.33;;
6737;SDS011;3406;49.902;8.596;2023-08-30T07:54:50;0.53;;;0.53;;
6737;SDS011;3406;49.902;8.596;2023-08-30T07:57:16;0.57;;;0.57;;
6737;SDS011;3406;49.902;8.596;2023-08-30T07:59:43;0.90;;;0.90;;
6737;SDS011;3406;49.902;8.596;2023-08-30T08:02:11;1.00;;;1.00;;
6737;SDS011;3406;49.902;8.596;2023-08-30T08:04:37;1.17;;;1.17;;
6737;SDS011;3406;49.902;8.596;2023-08-30T08:07:04;1.10;;;1.10;;
6737;SDS011;3406;49.902;8.596;2023-08-30T08:09:31;0.67;;;0.67;;
6737;SDS011;3406;49.902;8.596;2023-08-30T08:11:58;1.03;;;1.03;;
6737;SDS011;3406;49.902;8.596;2023-08-30T08:14:25;0.83;;;0.83;;
6737;SDS011;3406;49.902;8.596;2023-08-30T08:16:52;1.13;;;1.13;;
6737;SDS011;3406;49.902;8.596;2023-08-30T08:19:20;2.27;;;0.93;;
6737;SDS011;3406;49.902;8.596;2023-08-30T08:21:47;0.87;;;0.87;;
6737;SDS011;3406;49.902;8.596;2023-08-30T08:24:14;1.17;;;1.07;;
6737;SDS011;3406;49.902;8.596;2023-08-30T08:26:41;1.03;;;1.03;;
6737;SDS011;3406;49.902;8.596;2023-08-30T08:29:07;1.03;;;1.03;;
6737;SDS011;3406;49.902;8.596;2023-08-30T08:31:34;1.00;;;1.00;;
6737;SDS011;3406;49.902;8.596;2023-08-30T08:34:08;3.33;;;0.70;;
6737;SDS011;3406;49.902;8.596;2023-08-30T08:36:37;1.30;;;1.30;;
6737;SDS011;3406;49.902;8.596;2023-08-30T08:39:04;1.00;;;1.00;;
6737;SDS011;3406;49.902;8.596;2023-08-30T08:41:34;1.27;;;1.27;;
6737;SDS011;3406;49.902;8.596;2023-08-30T08:44:03;0.87;;;0.87;;
6737;SDS011;3406;49.902;8.596;2023-08-30T08:46:31;1.63;;;1.63;;
6737;SDS011;3406;49.902;8.596;2023-08-30T08:49:01;1.43;;;1.30;;
6737;SDS011;3406;49.902;8.596;2023-08-30T08:51:31;1.43;;;0.90;;
6737;SDS011;3406;49.902;8.596;2023-08-30T08:54:02;1.10;;;1.10;;
6737;SDS011;3406;49.902;8.596;2023-08-30T08:56:30;1.23;;;1.00;;
6737;SDS011;3406;49.902;8.596;2023-08-30T08:58:57;0.77;;;0.77;;
6737;SDS011;3406;49.902;8.596;2023-08-30T09:01:24;0.73;;;0.73;;
6737;SDS011;3406;49.902;8.596;2023-08-30T09:03:51;0.83;;;0.70;;
6737;SDS011;3406;49.902;8.596;2023-08-30T09:06:18;0.80;;;0.80;;
6737;SDS011;3406;49.902;8.596;2023-08-30T09:08:45;1.40;;;1.40;;
6737;SDS011;3406;49.902;8.596;2023-08-30T09:11:13;0.63;;;0.63;;
6737;SDS011;3406;49.902;8.596;2023-08-30T09:13:40;1.00;;;1.00;;
6737;SDS011;3406;49.902;8.596;2023-08-30T09:16:12;1.07;;;1.07;;
6737;SDS011;3406;49.902;8.596;2023-08-30T09:18:39;0.83;;;0.83;;
6737;SDS011;3406;49.902;8.596;2023-08-30T09:21:06;0.80;;;0.80;;
6737;SDS011;3406;49.902;8.596;2023-08-30T09:23:33;1.10;;;1.10;;
6737;SDS011;3406;49.902;8.596;2023-08-30T09:26:00;0.53;;;0.53;;
6737;SDS011;3406;49.902;8.596;2023-08-30T09:28:29;0.57;;;0.57;;
6737;SDS011;3406;49.902;8.596;2023-08-30T09:30:57;0.90;;;0.50;;
6737;SDS011;3406;49.902;8.596;2023-08-30T09:33:30;0.83;;;0.83;;
6737;SDS011;3406;49.902;8.596;2023-08-30T09:35:58;1.50;;;0.97;;
6737;SDS011;3406;49.902;8.596;2023-08-30T09:38:24;1.07;;;1.07;;
6737;SDS011;3406;49.902;8.596;2023-08-30T09:40:51;4.97;;;1.67;;
6737;SDS011;3406;49.902;8.596;2023-08-30T09:43:19;1.23;;;1.23;;
6737;SDS011;3406;49.902;8.596;2023-08-30T09:45:50;0.80;;;0.80;;
6737;SDS011;3406;49.902;8.596;2023-08-30T09:48:17;1.20;;;1.20;;
6737;SDS011;3406;49.902;8.596;2023-08-30T09:50:47;1.10;;;1.10;;
6737;SDS011;3406;49.902;8.596;2023-08-30T09:53:19;0.60;;;0.60;;
6737;SDS011;3406;49.902;8.596;2023-08-30T09:55:47;2.70;;;0.70;;
6737;SDS011;3406;49.902;8.596;2023-08-30T09:58:14;1.77;;;1.67;;
6737;SDS011;3406;49.902;8.596;2023-08-30T10:00:41;0.60;;;0.60;;
6737;SDS011;3406;49.902;8.596;2023-08-30T10:03:10;0.97;;;0.97;;
6737;SDS011;3406;49.902;8.596;2023-08-30T10:05:38;1.10;;;1.10;;
6737;SDS011;3406;49.902;8.596;2023-08-30T10:08:06;0.80;;;0.80;;
6737;SDS011;3406;49.902;8.596;2023-08-30T10:10:34;2.53;;;0.57;;
6737;SDS011;3406;49.902;8.596;2023-08-30T10:13:02;0.83;;;0.83;;
6737;SDS011;3406;49.902;8.596;2023-08-30T10:15:29;2.83;;;0.83;;
6737;SDS011;3406;49.902;8.596;2023-08-30T10:17:59;0.63;;;0.60;;
6737;SDS011;3406;49.902;8.596;2023-08-30T10:20:29;0.77;;;0.77;;
6737;SDS011;3406;49.902;8.596;2023-08-30T10:22:56;0.60;;;0.60;;
6737;SDS011;3406;49.902;8.596;2023-08-30T10:25:25;0.80;;;0.80;;
6737;SDS011;3406;49.902;8.596;2023-08-30T10:27:53;0.70;;;0.70;;
6737;SDS011;3406;49.902;8.596;2023-08-30T10:30:22;1.00;;;1.00;;
6737;SDS011;3406;49.902;8.596;2023-08-30T10:32:51;2.13;;;0.70;;
6737;SDS011;3406;49.902;8.596;2023-08-30T10:35:18;0.53;;;0.53;;
6737;SDS011;3406;49.902;8.596;2023-08-30T10:37:54;0.50;;;0.50;;
6737;SDS011;3406;49.902;8.596;2023-08-30T10:40:21;0.85;;;0.85;;
6737;SDS011;3406;49.902;8.596;2023-08-30T10:42:58;0.70;;;0.70;;
6737;SDS011;3406;49.902;8.596;2023-08-30T10:45:25;0.70;;;0.70;;
6737;SDS011;3406;49.902;8.596;2023-08-30T10:47:54;0.67;;;0.67;;
6737;SDS011;3406;49.902;8.596;2023-08-30T10:50:27;0.65;;;0.65;;
6737;SDS011;3406;49.902;8.596;2023-08-30T10:52:56;0.60;;;0.60;;
6737;SDS011;3406;49.902;8.596;2023-08-30T10:55:23;0.40;;;0.40;;
6737;SDS011;3406;49.902;8.596;2023-08-30T10:57:58;0.60;;;0.60;;
6737;SDS011;3406;49.902;8.596;2023-08-30T11:00:27;0.63;;;0.63;;
6737;SDS011;3406;49.902;8.596;2023-08-30T11:02:55;0.40;;;0.40;;
6737;SDS011;3406;49.902;8.596;2023-08-30T11:05:23;0.65;;;0.40;;
6737;SDS011;3406;49.902;8.596;2023-08-30T11:07:51;1.88;;;0.80;;
6737;SDS011;3406;49.902;8.596;2023-08-30T11:10:20;0.63;;;0.63;;
6737;SDS011;3406;49.902;8.596;2023-08-30T11:12:47;0.35;;;0.30;;
6737;SDS011;3406;49.902;8.596;2023-08-30T11:15:14;0.35;;;0.20;;
6737;SDS011;3406;49.902;8.596;2023-08-30T11:17:42;3.75;;;0.60;;
6737;SDS011;3406;49.902;8.596;2023-08-30T11:20:09;0.22;;;0.22;;
6737;SDS011;3406;49.902;8.596;2023-08-30T11:22:38;0.40;;;0.40;;
6737;SDS011;3406;49.902;8.596;2023-08-30T11:25:07;0.25;;;0.25;;
6737;SDS011;3406;49.902;8.596;2023-08-30T11:27:36;0.20;;;0.20;;
6737;SDS011;3406;49.902;8.596;2023-08-30T11:30:03;0.40;;;0.32;;
6737;SDS011;3406;49.902;8.596;2023-08-30T11:32:32;0.22;;;0.22;;
6737;SDS011;3406;49.902;8.596;2023-08-30T11:34:59;0.45;;;0.45;;
6737;SDS011;3406;49.902;8.596;2023-08-30T11:37:26;0.15;;;0.15;;
6737;SDS011;3406;49.902;8.596;2023-08-30T11:39:54;0.65;;;0.65;;
6737;SDS011;3406;49.902;8.596;2023-08-30T11:42:21;0.17;;;0.17;;
6737;SDS011;3406;49.902;8.596;2023-08-30T11:44:50;0.43;;;0.43;;
6737;SDS011;3406;49.902;8.596;2023-08-30T11:47:17;0.65;;;0.65;;
6737;SDS011;3406;49.902;8.596;2023-08-30T11:49:45;0.68;;;0.40;;
6737;SDS011;3406;49.902;8.596;2023-08-30T11:52:12;0.40;;;0.40;;
6737;SDS011;3406;49.902;8.596;2023-08-30T11:54:38;0.47;;;0.47;;
6737;SDS011;3406;49.902;8.596;2023-08-30T11:57:05;0.30;;;0.30;;
6737;SDS011;3406;49.902;8.596;2023-08-30T11:59:34;0.30;;;0.30;;
6737;SDS011;3406;49.902;8.596;2023-08-30T12:02:03;0.40;;;0.40;;
6737;SDS011;3406;49.902;8.596;2023-08-30T12:04:30;0.25;;;0.25;;
6737;SDS011;3406;49.902;8.596;2023-08-30T12:06:57;0.57;;;0.55;;
6737;SDS011;3406;49.902;8.596;2023-08-30T12:09:29;0.40;;;0.40;;
6737;SDS011;3406;49.902;8.596;2023-08-30T12:12:04;0.52;;;0.45;;
6737;SDS011;3406;49.902;8.596;2023-08-30T12:14:35;0.38;;;0.38;;
6737;SDS011;3406;49.902;8.596;2023-08-30T12:17:03;0.25;;;0.25;;
6737;SDS011;3406;49.902;8.596;2023-08-30T12:19:31;0.30;;;0.30;;
6737;SDS011;3406;49.902;8.596;2023-08-30T12:22:03;0.67;;;0.67;;
6737;SDS011;3406;49.902;8.596;2023-08-30T12:24:39;1.98;;;0.50;;
6737;SDS011;3406;49.902;8.596;2023-08-30T12:27:06;0.35;;;0.35;;
6737;SDS011;3406;49.902;8.596;2023-08-30T12:29:34;0.40;;;0.40;;
6737;SDS011;3406;49.902;8.596;2023-08-30T12:32:00;0.63;;;0.63;;
6737;SDS011;3406;49.902;8.596;2023-08-30T12:34:29;0.52;;;0.52;;
6737;SDS011;3406;49.902;8.596;2023-08-30T12:36:56;0.52;;;0.52;;
6737;SDS011;3406;49.902;8.596;2023-08-30T12:39:22;0.47;;;0.47;;
6737;SDS011;3406;49.902;8.596;2023-08-30T12:41:49;0.60;;;0.60;;
6737;SDS011;3406;49.902;8.596;2023-08-30T12:44:15;0.50;;;0.50;;
6737;SDS011;3406;49.902;8.596;2023-08-30T12:46:42;0.40;;;0.40;;
6737;SDS011;3406;49.902;8.596;2023-08-30T12:49:09;0.70;;;0.70;;
6737;SDS011;3406;49.902;8.596;2023-08-30T12:51:37;0.38;;;0.32;;
6737;SDS011;3406;49.902;8.596;2023-08-30T12:54:04;0.40;;;0.40;;
6737;SDS011;3406;49.902;8.596;2023-08-30T12:56:31;0.90;;;0.90;;
6737;SDS011;3406;49.902;8.596;2023-08-30T12:58:57;0.82;;;0.45;;
6737;SDS011;3406;49.902;8.596;2023-08-30T13:01:24;0.45;;;0.45;;
6737;SDS011;3406;49.902;8.596;2023-08-30T13:03:51;2.40;;;0.90;;
6737;SDS011;3406;49.902;8.596;2023-08-30T13:06:17;0.43;;;0.43;;
6737;SDS011;3406;49.902;8.596;2023-08-30T13:08:45;0.40;;;0.40;;
6737;SDS011;3406;49.902;8.596;2023-08-30T13:11:12;0.95;;;0.95;;
6737;SDS011;3406;49.902;8.596;2023-08-30T13:13:39;0.52;;;0.52;;
6737;SDS011;3406;49.902;8.596;2023-08-30T13:16:05;0.90;;;0.90;;
6737;SDS011;3406;49.902;8.596;2023-08-30T13:18:32;0.40;;;0.40;;
6737;SDS011;3406;49.902;8.596;2023-08-30T13:20:59;0.20;;;0.20;;
6737;SDS011;3406;49.902;8.596;2023-08-30T13:23:25;0.30;;;0.30;;
6737;SDS011;3406;49.902;8.596;2023-08-30T13:25:53;0.50;;;0.50;;
6737;SDS011;3406;49.902;8.596;2023-08-30T13:28:20;0.75;;;0.75;;
6737;SDS011;3406;49.902;8.596;2023-08-30T13:30:46;0.28;;;0.28;;
6737;SDS011;3406;49.902;8.596;2023-08-30T13:33:15;0.85;;;0.85;;
6737;SDS011;3406;49.902;8.596;2023-08-30T13:35:41;0.30;;;0.30;;
6737;SDS011;3406;49.902;8.596;2023-08-30T13:38:08;0.60;;;0.60;;
6737;SDS011;3406;49.902;8.596;2023-08-30T13:40:35;0.52;;;0.52;;
6737;SDS011;3406;49.902;8.596;2023-08-30T13:43:03;0.57;;;0.57;;
6737;SDS011;3406;49.902;8.596;2023-08-30T13:45:29;0.40;;;0.40;;
6737;SDS011;3406;49.902;8.596;2023-08-30T13:47:56;0.50;;;0.50;;
6737;SDS011;3406;49.902;8.596;2023-08-30T13:50:23;0.52;;;0.52;;
6737;SDS011;3406;49.902;8.596;2023-08-30T13:52:52;0.43;;;0.43;;
6737;SDS011;3406;49.902;8.596;2023-08-30T13:55:18;0.80;;;0.20;;
6737;SDS011;3406;49.902;8.596;2023-08-30T13:57:45;0.28;;;0.28;;
6737;SDS011;3406;49.902;8.596;2023-08-30T14:00:14;0.65;;;0.65;;
6737;SDS011;3406;49.902;8.596;2023-08-30T14:02:41;0.52;;;0.52;;
6737;SDS011;3406;49.902;8.596;2023-08-30T14:05:08;0.55;;;0.55;;
6737;SDS011;3406;49.902;8.596;2023-08-30T14:07:35;0.60;;;0.60;;
6737;SDS011;3406;49.902;8.596;2023-08-30T14:10:01;0.43;;;0.43;;
6737;SDS011;3406;49.902;8.596;2023-08-30T14:12:29;0.50;;;0.50;;
6737;SDS011;3406;49.902;8.596;2023-08-30T14:14:55;0.50;;;0.50;;
6737;SDS011;3406;49.902;8.596;2023-08-30T14:17:23;0.93;;;0.85;;
6737;SDS011;3406;49.902;8.596;2023-08-30T14:19:50;0.20;;;0.20;;
6737;SDS011;3406;49.902;8.596;2023-08-30T14:22:17;0.45;;;0.45;;
6737;SDS011;3406;49.902;8.596;2023-08-30T14:24:44;0.50;;;0.50;;
6737;SDS011;3406;49.902;8.596;2023-08-30T14:27:11;0.60;;;0.60;;
6737;SDS011;3406;49.902;8.596;2023-08-30T14:29:39;0.40;;;0.40;;
6737;SDS011;3406;49.902;8.596;2023-08-30T14:32:06;0.30;;;0.30;;
6737;SDS011;3406;49.902;8.596;2023-08-30T14:34:34;0.80;;;0.80;;
6737;SDS011;3406;49.902;8.596;2023-08-30T14:37:01;1.25;;;0.40;;
6737;SDS011;3406;49.902;8.596;2023-08-30T14:39:27;0.40;;;0.40;;
6737;SDS011;3406;49.902;8.596;2023-08-30T14:41:54;0.40;;;0.40;;
6737;SDS011;3406;49.902;8.596;2023-08-30T14:44:21;0.55;;;0.55;;
6737;SDS011;3406;49.902;8.596;2023-08-30T14:46:50;0.40;;;0.40;;
6737;SDS011;3406;49.902;8.596;2023-08-30T14:49:17;0.40;;;0.40;;
6737;SDS011;3406;49.902;8.596;2023-08-30T14:51:45;0.95;;;0.95;;
6737;SDS011;3406;49.902;8.596;2023-08-30T14:54:11;0.98;;;0.98;;
6737;SDS011;3406;49.902;8.596;2023-08-30T14:56:38;0.73;;;0.73;;
6737;SDS011;3406;49.902;8.596;2023-08-30T14:59:05;0.60;;;0.60;;
6737;SDS011;3406;49.902;8.596;2023-08-30T15:01:31;0.60;;;0.60;;
6737;SDS011;3406;49.902;8.596;2023-08-30T15:03:58;2.17;;;0.55;;
6737;SDS011;3406;49.902;8.596;2023-08-30T15:06:25;1.05;;;0.50;;
6737;SDS011;3406;49.902;8.596;2023-08-30T15:08:53;0.60;;;0.60;;
6737;SDS011;3406;49.902;8.596;2023-08-30T15:11:19;0.68;;;0.68;;
6737;SDS011;3406;49.902;8.596;2023-08-30T15:13:46;1.70;;;0.35;;
6737;SDS011;3406;49.902;8.596;2023-08-30T15:16:13;0.25;;;0.25;;
6737;SDS011;3406;49.902;8.596;2023-08-30T15:18:39;1.08;;;1.08;;